createdAt,value
2018-07-28T00:02:11.989Z,2.73
2018-07-28T00:04:39.620Z,2.93
2018-07-28T00:07:07.815Z,3.10
2018-07-28T00:09:35.671Z,2.90
2018-07-28T00:12:03.378Z,3.13
2018-07-28T00:14:30.959Z,3.07
2018-07-28T00:16:58.749Z,3.00
2018-07-28T00:19:26.380Z,3.10
2018-07-28T00:21:54.251Z,3.00
2018-07-28T00:24:26.728Z,3.37
2018-07-28T00:26:54.535Z,3.50
2018-07-28T00:29:22.148Z,3.00
2018-07-28T00:31:49.870Z,2.80
2018-07-28T00:34:17.672Z,3.13
2018-07-28T00:36:45.316Z,2.93
2018-07-28T00:39:13.808Z,3.60
2018-07-28T00:41:41.896Z,4.37
2018-07-28T00:44:09.504Z,4.53
2018-07-28T00:46:37.200Z,5.20
2018-07-28T00:49:05.489Z,5.03
2018-07-28T00:51:33.335Z,5.17
2018-07-28T00:54:01.917Z,5.60
2018-07-28T00:56:29.651Z,6.10
2018-07-28T00:58:57.660Z,6.10
2018-07-28T01:01:25.251Z,7.07
2018-07-28T01:03:52.972Z,6.77
2018-07-28T01:06:21.676Z,6.20
2018-07-28T01:08:49.359Z,6.60
2018-07-28T01:11:16.992Z,7.23
2018-07-28T01:13:45.015Z,6.63
2018-07-28T01:16:12.620Z,6.57
2018-07-28T01:18:40.536Z,6.17
2018-07-28T01:21:08.453Z,5.87
2018-07-28T01:23:36.101Z,6.27
2018-07-28T01:26:04.041Z,5.20
2018-07-28T01:28:31.721Z,4.30
2018-07-28T01:30:59.360Z,5.30
2018-07-28T01:33:27.086Z,5.03
2018-07-28T01:35:54.923Z,4.60
2018-07-28T01:38:22.684Z,5.00
2018-07-28T01:40:50.331Z,5.40
2018-07-28T01:43:17.995Z,4.93
2018-07-28T01:45:46.006Z,5.37
2018-07-28T01:48:13.646Z,5.17
2018-07-28T01:50:41.336Z,4.30
2018-07-28T01:53:09.348Z,4.50
2018-07-28T01:55:36.996Z,4.00
2018-07-28T01:58:04.785Z,3.70
2018-07-28T02:00:32.548Z,4.17
2018-07-28T02:03:00.213Z,4.47
2018-07-28T02:05:35.459Z,4.17
2018-07-28T02:08:33.541Z,3.87
2018-07-28T02:11:16.666Z,3.83
2018-07-28T02:13:52.704Z,3.97
2018-07-28T02:16:20.492Z,3.97
2018-07-28T02:18:48.092Z,4.00
2018-07-28T02:21:15.772Z,3.83
2018-07-28T02:23:43.491Z,4.07
2018-07-28T02:26:11.074Z,4.27
2018-07-28T02:28:38.778Z,3.70
2018-07-28T02:31:06.606Z,3.93
2018-07-28T02:33:34.293Z,3.90
2018-07-28T02:36:03.482Z,3.47
2018-07-28T02:38:31.577Z,3.27
2018-07-28T02:40:59.142Z,3.57
2018-07-28T02:43:26.834Z,3.43
2018-07-28T02:45:55.510Z,3.10
2018-07-28T02:48:23.221Z,3.20
2018-07-28T02:50:50.911Z,3.60
2018-07-28T02:53:19.625Z,2.80
2018-07-28T02:55:47.233Z,3.20
2018-07-28T02:58:14.879Z,3.50
2018-07-28T03:00:42.837Z,3.00
2018-07-28T03:03:10.816Z,3.40
2018-07-28T03:05:38.403Z,3.20
2018-07-28T03:08:06.644Z,3.00
2018-07-28T03:10:34.298Z,3.10
2018-07-28T03:13:01.983Z,2.93
2018-07-28T03:15:31.124Z,3.33
2018-07-28T03:18:00.146Z,3.27
2018-07-28T03:20:28.010Z,3.87
2018-07-28T03:22:55.775Z,3.37
2018-07-28T03:25:23.944Z,3.43
2018-07-28T03:27:51.613Z,3.40
2018-07-28T03:30:19.456Z,3.57
2018-07-28T03:32:47.101Z,3.30
2018-07-28T03:35:14.735Z,3.20
2018-07-28T03:37:49.796Z,3.73
2018-07-28T03:40:17.477Z,3.60
2018-07-28T03:42:45.139Z,3.20
2018-07-28T03:45:13.025Z,3.60
2018-07-28T03:47:41.260Z,3.90
2018-07-28T03:50:09.112Z,3.30
2018-07-28T03:52:36.949Z,3.47
2018-07-28T03:55:05.518Z,3.40
2018-07-28T03:57:33.180Z,3.70
2018-07-28T04:00:01.113Z,3.53
2018-07-28T04:02:28.737Z,3.40
2018-07-28T04:04:56.413Z,3.10
2018-07-28T04:07:24.232Z,3.80
2018-07-28T04:09:51.927Z,3.47
2018-07-28T04:12:19.600Z,3.13
2018-07-28T04:14:48.109Z,4.03
2018-07-28T04:17:15.741Z,3.60
2018-07-28T04:19:43.508Z,3.37
2018-07-28T04:22:11.396Z,3.40
2018-07-28T04:24:38.980Z,3.60
2018-07-28T04:27:07.048Z,3.03
2018-07-28T04:29:34.720Z,3.60
2018-07-28T04:32:02.626Z,3.47
2018-07-28T04:34:30.318Z,4.17
2018-07-28T04:36:58.067Z,3.23
2018-07-28T04:39:26.119Z,3.70
2018-07-28T04:41:53.724Z,3.50
2018-07-28T04:44:21.309Z,3.53
2018-07-28T04:46:48.960Z,3.50
2018-07-28T04:49:16.583Z,3.33
2018-07-28T04:51:44.181Z,3.50
2018-07-28T04:54:12.030Z,3.67
2018-07-28T04:56:40.735Z,3.70
2018-07-28T04:59:08.492Z,3.43
2018-07-28T05:01:36.176Z,3.67
2018-07-28T05:04:03.781Z,3.53
2018-07-28T05:06:31.559Z,3.67
2018-07-28T05:08:59.233Z,3.60
2018-07-28T05:11:26.883Z,3.67
2018-07-28T05:13:54.651Z,3.63
2018-07-28T05:16:22.346Z,3.73
2018-07-28T05:18:50.170Z,3.40
2018-07-28T05:21:17.796Z,3.20
2018-07-28T05:23:46.166Z,3.70
2018-07-28T05:26:13.950Z,3.63
2018-07-28T05:28:41.606Z,4.30
2018-07-28T05:31:09.217Z,3.43
2018-07-28T05:33:37.233Z,3.73
2018-07-28T05:36:04.892Z,3.87
2018-07-28T05:38:32.777Z,3.70
2018-07-28T05:41:00.680Z,3.43
2018-07-28T05:43:28.368Z,3.97
2018-07-28T05:45:55.992Z,4.20
2018-07-28T05:48:23.971Z,3.70
2018-07-28T05:50:51.659Z,3.67
2018-07-28T05:53:19.244Z,4.03
2018-07-28T05:55:47.169Z,4.00
2018-07-28T05:58:15.161Z,3.80
2018-07-28T06:00:43.924Z,3.67
2018-07-28T06:03:11.582Z,3.60
2018-07-28T06:05:39.272Z,3.53
2018-07-28T06:08:07.152Z,3.63
2018-07-28T06:10:34.741Z,3.53
2018-07-28T06:13:02.604Z,3.70
2018-07-28T06:15:30.258Z,3.53
2018-07-28T06:17:57.898Z,3.63
2018-07-28T06:20:25.891Z,3.60
2018-07-28T06:22:53.532Z,3.80
2018-07-28T06:25:21.559Z,3.83
2018-07-28T06:27:49.206Z,3.97
2018-07-28T06:30:16.825Z,3.70
2018-07-28T06:32:44.633Z,3.60
2018-07-28T06:35:12.309Z,3.57
2018-07-28T06:37:39.917Z,2.93
2018-07-28T06:40:08.493Z,3.33
2018-07-28T06:42:36.086Z,3.50
2018-07-28T06:45:04.385Z,3.60
2018-07-28T06:47:32.272Z,3.47
2018-07-28T06:49:59.889Z,3.00
2018-07-28T06:52:27.665Z,3.30
2018-07-28T06:54:55.381Z,3.77
2018-07-28T06:57:23.096Z,3.57
2018-07-28T06:59:51.317Z,3.47
2018-07-28T07:02:19.027Z,3.23
2018-07-28T07:04:46.695Z,3.27
2018-07-28T07:07:15.144Z,3.63
2018-07-28T07:09:43.404Z,3.40
2018-07-28T07:12:11.136Z,3.57
2018-07-28T07:14:38.757Z,3.53
2018-07-28T07:17:06.874Z,3.77
2018-07-28T07:19:34.604Z,3.53
2018-07-28T07:22:02.404Z,3.10
2018-07-28T07:24:30.092Z,3.40
2018-07-28T07:26:58.317Z,3.60
2018-07-28T07:29:26.198Z,3.23
2018-07-28T07:31:54.062Z,3.60
2018-07-28T07:34:21.930Z,3.73
2018-07-28T07:36:50.003Z,3.80
2018-07-28T07:39:23.319Z,3.47
2018-07-28T07:41:51.308Z,3.30
2018-07-28T07:44:19.161Z,3.57
2018-07-28T07:46:47.450Z,3.60
2018-07-28T07:49:15.149Z,3.40
2018-07-28T07:51:43.116Z,3.37
2018-07-28T07:54:11.189Z,3.30
2018-07-28T07:56:38.817Z,3.10
2018-07-28T07:59:06.734Z,3.50
2018-07-28T08:01:34.321Z,3.30
2018-07-28T08:04:02.168Z,3.53
2018-07-28T08:06:30.216Z,3.20
2018-07-28T08:08:57.746Z,3.20
2018-07-28T08:11:25.491Z,3.60
2018-07-28T08:13:53.522Z,3.23
2018-07-28T08:16:21.216Z,3.47
2018-07-28T08:18:48.980Z,3.20
2018-07-28T08:21:16.548Z,3.27
2018-07-28T08:23:44.146Z,3.47
2018-07-28T08:26:12.090Z,3.30
2018-07-28T08:28:39.638Z,3.43
2018-07-28T08:31:07.466Z,3.50
2018-07-28T08:33:35.365Z,3.47
2018-07-28T08:36:03.021Z,3.13
2018-07-28T08:38:30.684Z,3.10
2018-07-28T08:40:58.808Z,3.27
2018-07-28T08:43:26.410Z,3.10
2018-07-28T08:45:54.068Z,3.50
2018-07-28T08:48:21.733Z,3.30
2018-07-28T08:50:49.472Z,2.83
2018-07-28T08:53:16.733Z,3.20
2018-07-28T08:55:44.345Z,3.00
2018-07-28T08:58:12.049Z,3.13
2018-07-28T09:00:39.824Z,3.20
2018-07-28T09:03:07.444Z,2.90
2018-07-28T09:05:35.009Z,3.13
2018-07-28T09:08:03.419Z,3.00
2018-07-28T09:10:31.101Z,3.13
2018-07-28T09:12:58.981Z,3.00
2018-07-28T09:15:27.848Z,2.97
2018-07-28T09:17:55.493Z,3.23
2018-07-28T09:20:23.368Z,3.30
2018-07-28T09:22:51.218Z,3.07
2018-07-28T09:25:18.821Z,3.10
2018-07-28T09:27:46.600Z,2.87
2018-07-28T09:30:14.781Z,2.87
2018-07-28T09:32:42.476Z,2.50
2018-07-28T09:35:10.412Z,2.80
2018-07-28T09:37:38.101Z,2.90
2018-07-28T09:40:08.553Z,2.97
2018-07-28T09:42:36.759Z,2.67
2018-07-28T09:45:05.184Z,2.93
2018-07-28T09:47:32.870Z,3.13
2018-07-28T09:50:00.768Z,2.57
2018-07-28T09:52:28.457Z,3.03
2018-07-28T09:54:56.493Z,2.77
2018-07-28T09:57:24.857Z,3.17
2018-07-28T09:59:52.640Z,2.80
2018-07-28T10:02:20.393Z,2.47
2018-07-28T10:04:48.584Z,2.87
2018-07-28T10:07:16.410Z,2.57
2018-07-28T10:09:43.947Z,2.77
2018-07-28T10:12:11.913Z,2.70
2018-07-28T10:14:39.873Z,2.77
2018-07-28T10:17:07.805Z,2.67
2018-07-28T10:19:35.997Z,2.90
2018-07-28T10:22:03.980Z,2.83
2018-07-28T10:24:31.885Z,2.50
2018-07-28T10:26:59.528Z,2.40
2018-07-28T10:29:27.756Z,2.60
2018-07-28T10:31:55.391Z,2.47
2018-07-28T10:34:23.635Z,2.60
2018-07-28T10:36:51.434Z,2.67
2018-07-28T10:39:19.626Z,2.80
2018-07-28T10:41:47.917Z,2.63
2018-07-28T10:44:15.664Z,2.97
2018-07-28T10:46:43.520Z,2.90
2018-07-28T10:49:11.759Z,2.83
2018-07-28T10:51:40.052Z,2.70
2018-07-28T10:54:08.015Z,2.53
2018-07-28T10:56:36.038Z,2.60
2018-07-28T10:59:04.215Z,2.90
2018-07-28T11:01:32.282Z,5.60
2018-07-28T11:04:01.102Z,2.87
2018-07-28T11:06:29.251Z,2.93
2018-07-28T11:08:57.231Z,2.80
2018-07-28T11:11:24.642Z,2.50
2018-07-28T11:13:52.264Z,2.80
2018-07-28T11:16:20.885Z,3.03
2018-07-28T11:18:48.606Z,2.90
2018-07-28T11:21:16.217Z,3.20
2018-07-28T11:23:55.557Z,2.97
2018-07-28T11:26:23.490Z,2.40
2018-07-28T11:28:53.187Z,2.83
2018-07-28T11:32:37.927Z,2.60
2018-07-28T11:35:33.757Z,2.20
2018-07-28T11:38:30.346Z,2.27
2018-07-28T11:41:15.515Z,2.60
2018-07-28T11:44:01.089Z,2.47
2018-07-28T11:46:29.933Z,2.03
2018-07-28T11:48:57.572Z,2.30
2018-07-28T11:51:27.771Z,2.43
2018-07-28T11:53:58.302Z,2.97
2018-07-28T11:56:27.632Z,2.60
2018-07-28T11:58:55.238Z,2.80
2018-07-28T12:01:22.797Z,2.77
2018-07-28T12:03:50.508Z,2.77
2018-07-28T12:06:18.134Z,3.00
2018-07-28T12:08:45.810Z,2.50
2018-07-28T12:11:13.305Z,2.43
2018-07-28T12:13:40.954Z,2.53
2018-07-28T12:16:08.669Z,2.50
2018-07-28T12:18:36.439Z,2.83
2018-07-28T12:21:04.259Z,2.60
2018-07-28T12:23:31.869Z,2.80
2018-07-28T12:25:59.444Z,3.00
2018-07-28T12:28:27.159Z,2.40
2018-07-28T12:30:54.765Z,2.90
2018-07-28T12:33:22.414Z,3.53
2018-07-28T12:35:50.898Z,3.07
2018-07-28T12:38:18.805Z,3.33
2018-07-28T12:40:48.605Z,3.60
2018-07-28T12:43:16.237Z,3.33
2018-07-28T12:45:43.864Z,3.43
2018-07-28T12:48:11.789Z,3.13
2018-07-28T12:50:39.457Z,3.07
2018-07-28T12:53:07.325Z,3.30
2018-07-28T12:55:35.232Z,3.07
2018-07-28T12:58:02.798Z,2.63
2018-07-28T13:00:30.537Z,3.47
2018-07-28T13:02:58.094Z,3.17
2018-07-28T13:05:26.228Z,2.70
2018-07-28T13:07:54.025Z,2.87
2018-07-28T13:10:21.688Z,2.70
2018-07-28T13:12:49.757Z,2.37
2018-07-28T13:15:17.200Z,2.30
2018-07-28T13:17:44.880Z,2.33
2018-07-28T13:20:12.420Z,2.30
2018-07-28T13:22:40.100Z,1.93
2018-07-28T13:25:07.756Z,2.43
2018-07-28T13:27:35.353Z,2.23
2018-07-28T13:30:03.783Z,2.23
2018-07-28T13:32:31.367Z,1.97
2018-07-28T13:34:59.034Z,2.00
2018-07-28T13:37:27.279Z,2.30
2018-07-28T13:39:54.922Z,2.57
2018-07-28T13:42:22.520Z,2.07
2018-07-28T13:44:56.624Z,2.43
2018-07-28T13:47:24.204Z,2.73
2018-07-28T13:49:59.991Z,2.57
2018-07-28T13:52:27.609Z,2.50
2018-07-28T13:54:55.589Z,2.50
2018-07-28T13:57:24.273Z,2.30
2018-07-28T13:59:52.660Z,2.43
2018-07-28T14:02:20.510Z,2.27
2018-07-28T14:04:48.233Z,2.70
2018-07-28T14:07:15.830Z,2.63
2018-07-28T14:09:43.881Z,2.70
2018-07-28T14:12:11.549Z,2.70
2018-07-28T14:14:39.237Z,2.93
2018-07-28T14:17:06.872Z,2.83
2018-07-28T14:19:34.474Z,2.30
2018-07-28T14:22:02.059Z,2.60
2018-07-28T14:24:29.959Z,2.47
2018-07-28T14:26:57.661Z,2.13
2018-07-28T14:29:25.375Z,2.60
2018-07-28T14:31:53.432Z,2.43
2018-07-28T14:34:21.002Z,2.37
2018-07-28T14:36:48.563Z,1.77
2018-07-28T14:39:16.456Z,2.10
2018-07-28T14:41:44.238Z,2.10
2018-07-28T14:44:11.836Z,1.90
2018-07-28T14:46:39.579Z,2.00
2018-07-28T14:49:07.213Z,2.00
2018-07-28T14:51:35.128Z,2.17
2018-07-28T14:54:09.560Z,2.20
2018-07-28T14:56:37.401Z,2.03
2018-07-28T14:59:05.296Z,1.90
2018-07-28T15:01:32.969Z,2.03
2018-07-28T15:04:00.802Z,2.00
2018-07-28T15:06:29.399Z,2.30
2018-07-28T15:08:56.979Z,2.00
2018-07-28T15:11:24.950Z,2.23
2018-07-28T15:13:52.667Z,2.00
2018-07-28T15:16:20.684Z,2.07
2018-07-28T15:18:48.432Z,2.20
2018-07-28T15:21:16.126Z,2.23
2018-07-28T15:23:43.859Z,2.13
2018-07-28T15:26:12.374Z,2.17
2018-07-28T15:28:40.043Z,2.10
2018-07-28T15:31:11.105Z,2.20
2018-07-28T15:33:46.109Z,1.93
2018-07-28T15:36:13.857Z,2.30
2018-07-28T15:38:41.446Z,2.50
2018-07-28T15:41:09.371Z,2.27
2018-07-28T15:43:36.962Z,2.60
2018-07-28T15:46:05.971Z,2.80
2018-07-28T15:48:33.530Z,2.80
2018-07-28T15:51:01.169Z,2.90
2018-07-28T15:53:29.049Z,2.80
2018-07-28T15:55:56.621Z,2.70
2018-07-28T15:58:24.585Z,2.60
2018-07-28T16:00:52.156Z,2.30
2018-07-28T16:03:19.732Z,2.53
2018-07-28T16:05:48.159Z,2.50
2018-07-28T16:08:15.726Z,2.60
2018-07-28T16:10:43.405Z,2.57
2018-07-28T16:13:11.244Z,2.43
2018-07-28T16:15:39.028Z,2.50
2018-07-28T16:18:06.625Z,2.30
2018-07-28T16:20:34.342Z,2.70
2018-07-28T16:23:02.129Z,2.53
2018-07-28T16:25:30.568Z,2.33
2018-07-28T16:27:58.480Z,3.27
2018-07-28T16:30:26.053Z,3.10
2018-07-28T16:32:53.634Z,2.93
2018-07-28T16:35:21.547Z,3.00
2018-07-28T16:37:49.188Z,2.93
2018-07-28T16:40:16.928Z,2.57
2018-07-28T16:42:44.513Z,3.20
2018-07-28T16:45:12.108Z,3.37
2018-07-28T16:47:39.737Z,3.23
2018-07-28T16:50:07.751Z,3.00
2018-07-28T16:52:35.453Z,2.90
2018-07-28T16:55:03.251Z,2.80
2018-07-28T16:57:31.302Z,3.10
2018-07-28T16:59:58.933Z,2.50
2018-07-28T17:02:26.546Z,2.90
2018-07-28T17:04:54.445Z,2.90
2018-07-28T17:07:22.397Z,2.80
2018-07-28T17:09:50.009Z,2.50
2018-07-28T17:12:17.618Z,2.57
2018-07-28T17:14:45.505Z,2.53
2018-07-28T17:17:13.100Z,2.10
2018-07-28T17:19:40.700Z,2.67
2018-07-28T17:22:08.920Z,2.53
2018-07-28T17:24:36.531Z,2.60
2018-07-28T17:27:04.162Z,2.70
2018-07-28T17:29:32.024Z,2.60
2018-07-28T17:31:59.659Z,2.10
2018-07-28T17:34:27.269Z,2.60
2018-07-28T17:36:55.241Z,2.33
2018-07-28T17:39:22.873Z,2.47
2018-07-28T17:41:50.489Z,2.07
2018-07-28T17:44:18.299Z,2.50
2018-07-28T17:46:45.961Z,2.57
2018-07-28T17:49:13.514Z,2.20
2018-07-28T17:51:41.427Z,2.40
2018-07-28T17:54:09.102Z,2.30
2018-07-28T17:56:36.888Z,2.43
2018-07-28T17:59:04.528Z,2.20
2018-07-28T18:01:32.285Z,1.90
2018-07-28T18:03:59.836Z,2.00
2018-07-28T18:06:27.430Z,1.73
2018-07-28T18:08:55.332Z,2.07
2018-07-28T18:11:23.164Z,1.83
2018-07-28T18:13:50.757Z,2.00
2018-07-28T18:16:18.392Z,1.80
2018-07-28T18:18:46.209Z,1.63
2018-07-28T18:21:13.961Z,1.77
2018-07-28T18:23:49.120Z,1.93
2018-07-28T18:26:16.710Z,1.73
2018-07-28T18:28:44.428Z,1.90
2018-07-28T18:31:12.355Z,2.70
2018-07-28T18:33:40.558Z,2.27
2018-07-28T18:36:08.202Z,1.90
2018-07-28T18:38:35.816Z,2.03
2018-07-28T18:41:03.518Z,1.80
2018-07-28T18:43:31.098Z,2.20
2018-07-28T18:45:58.718Z,1.97
2018-07-28T18:48:26.565Z,2.10
2018-07-28T18:50:54.553Z,1.80
2018-07-28T18:53:22.105Z,1.77
2018-07-28T18:55:50.221Z,2.17
2018-07-28T18:58:17.858Z,2.20
2018-07-28T19:00:45.468Z,2.20
2018-07-28T19:03:13.104Z,2.37
2018-07-28T19:05:40.992Z,2.30
2018-07-28T19:08:08.635Z,2.23
2018-07-28T19:10:36.501Z,2.27
2018-07-28T19:13:09.946Z,2.13
2018-07-28T19:15:38.060Z,1.93
2018-07-28T19:19:13.096Z,2.20
2018-07-28T19:21:41.779Z,1.50
2018-07-28T19:24:09.502Z,1.97
2018-07-28T19:26:37.056Z,1.83
2018-07-28T19:29:10.615Z,2.40
2018-07-28T19:31:38.240Z,2.00
2018-07-28T19:34:06.144Z,1.90
2018-07-28T19:36:39.540Z,1.97
2018-07-28T19:39:08.293Z,2.07
2018-07-28T19:41:42.128Z,1.90
2018-07-28T19:44:10.634Z,2.47
2018-07-28T19:46:38.265Z,2.00
2018-07-28T19:49:06.583Z,2.37
2018-07-28T19:51:34.212Z,2.23
2018-07-28T19:54:01.921Z,2.10
2018-07-28T19:56:30.095Z,2.37
2018-07-28T19:58:57.738Z,2.20
2018-07-28T20:01:25.436Z,1.90
2018-07-28T20:03:53.916Z,2.07
2018-07-28T20:06:21.578Z,2.50
2018-07-28T20:08:49.316Z,2.30
2018-07-28T20:11:16.972Z,2.20
2018-07-28T20:13:44.754Z,2.00
2018-07-28T20:16:12.563Z,2.57
2018-07-28T20:18:40.420Z,2.20
2018-07-28T20:21:08.124Z,2.10
2018-07-28T20:23:36.055Z,2.00
2018-07-28T20:26:04.124Z,2.70
2018-07-28T20:28:32.029Z,2.50
2018-07-28T20:30:59.681Z,2.17
2018-07-28T20:33:27.534Z,2.30
2018-07-28T20:35:55.270Z,2.30
2018-07-28T20:38:23.337Z,1.90
2018-07-28T20:40:51.169Z,2.10
2018-07-28T20:43:18.853Z,2.47
2018-07-28T20:45:46.448Z,2.70
2018-07-28T20:48:14.295Z,2.67
2018-07-28T20:50:41.902Z,2.40
2018-07-28T20:53:09.547Z,2.20
2018-07-28T20:55:37.197Z,2.20
2018-07-28T20:58:04.926Z,2.40
2018-07-28T21:00:32.807Z,2.43
2018-07-28T21:03:00.414Z,2.37
2018-07-28T21:05:28.046Z,2.30
2018-07-28T21:07:55.995Z,2.77
2018-07-28T21:10:23.566Z,2.70
2018-07-28T21:12:51.221Z,2.20
2018-07-28T21:15:19.218Z,2.20
2018-07-28T21:17:46.861Z,2.17
2018-07-28T21:20:14.465Z,2.13
2018-07-28T21:22:42.552Z,2.30
2018-07-28T21:25:10.168Z,2.50
2018-07-28T21:27:37.853Z,2.70
2018-07-28T21:30:05.700Z,2.43
2018-07-28T21:32:33.639Z,2.40
2018-07-28T21:35:01.361Z,2.50
2018-07-28T21:37:28.920Z,2.50
2018-07-28T21:39:56.512Z,2.33
2018-07-28T21:42:24.308Z,2.47
2018-07-28T21:44:52.133Z,2.67
2018-07-28T21:47:20.830Z,2.70
2018-07-28T21:49:48.648Z,2.40
2018-07-28T21:52:16.259Z,2.60
2018-07-28T21:54:43.964Z,2.67
2018-07-28T21:57:11.577Z,2.37
2018-07-28T21:59:39.320Z,2.40
2018-07-28T22:02:07.391Z,2.70
2018-07-28T22:04:37.129Z,2.37
2018-07-28T22:07:04.789Z,2.27
2018-07-28T22:09:32.933Z,2.60
2018-07-28T22:12:00.707Z,2.60
2018-07-28T22:14:28.331Z,2.17
2018-07-28T22:16:56.018Z,2.43
2018-07-28T22:19:23.742Z,2.30
2018-07-28T22:21:51.328Z,2.57
2018-07-28T22:24:19.121Z,2.70
2018-07-28T22:26:46.850Z,2.30
2018-07-28T22:29:14.480Z,2.63
2018-07-28T22:31:42.590Z,2.40
2018-07-28T22:34:10.241Z,2.57
2018-07-28T22:36:37.940Z,2.60
2018-07-28T22:39:08.907Z,2.50
2018-07-28T22:41:36.814Z,2.03
2018-07-28T22:44:04.494Z,2.53
2018-07-28T22:46:32.046Z,2.30
2018-07-28T22:48:59.994Z,2.57
2018-07-28T22:51:27.660Z,2.60
2018-07-28T22:53:55.318Z,2.77
2018-07-28T22:56:23.314Z,2.73
2018-07-28T22:58:50.870Z,2.83
2018-07-28T23:01:18.916Z,2.70
2018-07-28T23:03:46.513Z,2.97
2018-07-28T23:06:14.138Z,3.00
2018-07-28T23:08:42.160Z,2.33
2018-07-28T23:11:09.722Z,3.13
2018-07-28T23:13:37.381Z,2.70
2018-07-28T23:16:05.876Z,2.90
2018-07-28T23:18:33.471Z,2.47
2018-07-28T23:21:01.092Z,2.67
2018-07-28T23:23:28.908Z,2.87
2018-07-28T23:25:56.574Z,2.70
2018-07-28T23:28:24.225Z,2.80
2018-07-28T23:30:51.940Z,4.90
2018-07-28T23:33:26.410Z,3.10
2018-07-28T23:35:54.499Z,2.97
2018-07-28T23:38:22.112Z,2.40
2018-07-28T23:40:49.729Z,2.73
2018-07-28T23:43:17.558Z,2.47
2018-07-28T23:45:45.201Z,2.50
2018-07-28T23:48:12.784Z,2.47
2018-07-28T23:50:40.567Z,2.77
2018-07-28T23:53:08.346Z,2.37
2018-07-28T23:55:35.967Z,2.40
2018-07-28T23:58:03.605Z,2.70
